Latest Weather Observations for Melbourne Airport

IDV60801

Issued at 9:32 am EST Thursday 21 September 2017 (issued every 30 minutes, with the page automatically refreshed every 10 minutes)

About weather observations | Map of weather stations | Latest weather observations for VIC | Other Formats
Station Details ID: 086282 Name: MELBOURNE AIRPORT Lat: -37.67 Lon: 144.83 Height: 113.4 m
Data from the previous 72 hours. | See also: Recent months at Melbourne Airport
Date/Time
EST
Temp
°C
App
Temp
°C
Dew
Point
°C
Rel
Hum
%
Delta-T
°C
Wind Press
QNH
hPa
Press
MSL
hPa
Rain since
9am
mm
Dir  Spd
km/h
Gust
km/h
Spd
kts
Gust
kts
21/09:00am 12.3 0.2 3.3 54 4.0 N 56 74 30 40 1011.6 1011.6 0.0
21/08:30am 12.5 2.3 3.3 53 4.1 N 46 74 25 40 1012.5 1012.5 0.0
21/08:00am 12.5 3.6 2.8 51 4.3 N 39 59 21 32 1013.1 1013.1 0.0
21/07:34am 12.3 4.7 3.1 53 4.1 N 32 50 17 27 1013.3 1013.3 0.0
21/07:30am 12.3 5.1 3.1 53 4.1 N 30 43 16 23 1013.5 1013.5 0.0
21/07:00am 11.9 4.4 3.6 57 3.7 N 32 41 17 22 1013.0 1013.0 0.0
21/06:30am 11.7 4.3 3.9 59 3.5 NNE 32 44 17 24 1012.6 1012.6 0.0
21/06:00am 11.7 2.6 3.9 59 3.5 NNE 41 50 22 27 1012.7 1012.7 0.0
21/05:30am 11.9 1.4 3.9 58 3.6 N 48 70 26 38 1012.9 1012.9 0.0
21/05:21am 12.1 2.0 3.9 57 3.7 N 46 70 25 38 1012.7 1012.7 0.0
21/05:00am 11.7 2.6 4.2 60 3.4 N 41 52 22 28 1012.6 1012.6 0.0
21/04:30am 11.6 2.9 4.3 61 3.3 N 39 52 21 28 1012.6 1012.6 0.0
21/04:00am 11.7 3.8 4.2 60 3.4 N 35 41 19 22 1012.7 1012.7 0.0
21/03:30am 11.6 3.4 4.6 62 3.2 N 37 48 20 26 1012.9 1012.9 0.0
21/03:00am 11.8 2.2 4.6 61 3.3 N 44 56 24 30 1012.8 1012.8 0.0
21/02:30am 11.8 2.3 4.8 62 3.2 NNE 44 56 24 30 1012.8 1012.8 0.0
21/02:00am 11.8 2.5 4.8 62 3.2 NNE 43 56 23 30 1013.1 1013.1 0.0
21/01:30am 11.5 3.3 4.7 63 3.1 NNE 37 48 20 26 1013.7 1013.8 0.0
21/01:02am 11.7 4.2 4.7 62 3.2 NNE 33 54 18 29 1014.1 1014.2 0.0
21/01:00am 11.4 4.2 4.8 64 3.0 NNE 32 46 17 25 1014.1 1014.2 0.0
21/12:30am 11.8 4.0 4.8 62 3.2 N 35 54 19 29 1014.6 1014.7 0.0
21/12:21am 12.0 4.5 4.6 60 3.4 NNE 33 54 18 29 1014.5 1014.6 0.0
21/12:00am 11.7 5.2 4.7 62 3.2 N 28 35 15 19 1014.8 1014.9 0.0
 
Date/Time
EST
Temp
°C
App
Temp
°C
Dew
Point
°C
Rel
Hum
%
Delta-T
°C
Wind Press
QNH
hPa
Press
MSL
hPa
Rain since
9am
mm
Dir  Spd
km/h
Gust
km/h
Spd
kts
Gust
kts
20/11:30pm 12.0 6.2 4.6 60 3.4 NNE 24 32 13 17 1015.0 1015.1 0.0
20/11:00pm 12.1 7.3 4.4 59 3.5 N 19 24 10 13 1015.2 1015.3 0.0
20/10:30pm 13.1 9.2 3.6 52 4.3 WNW 13 22 7 12 1015.9 1016.0 0.0
20/10:04pm 12.8 5.5 4.3 56 3.9 N 32 46 17 25 1015.8 1015.9 0.0
20/10:00pm 13.0 4.3 4.3 55 4.0 N 39 61 21 33 1015.2 1015.3 0.0
20/09:51pm 13.4 4.3 4.0 53 4.3 N 41 61 22 33 1014.8 1014.9 0.0
20/09:30pm 14.2 3.3 3.4 48 4.9 N 50 59 27 32 1013.7 1013.8 0.0
20/09:04pm 13.9 4.4 4.1 51 4.5 NNE 43 61 23 33 1014.1 1014.2 0.0
20/09:00pm 13.9 4.4 4.1 51 4.5 N 43 57 23 31 1014.3 1014.4 0.0
20/08:51pm 13.9 5.2 4.1 51 4.5 N 39 57 21 31 1014.7 1014.8 0.0
20/08:30pm 13.8 5.6 4.5 53 4.3 N 37 48 20 26 1015.4 1015.5 0.0
20/08:00pm 14.1 6.2 4.4 52 4.5 N 35 46 19 25 1015.5 1015.6 0.0
20/07:30pm 14.5 6.7 4.7 52 4.6 N 35 50 19 27 1015.4 1015.5 0.0
20/07:00pm 14.5 7.3 4.9 52 4.5 N 32 44 17 24 1015.3 1015.4 0.0
20/06:30pm 14.1 7.7 5.2 55 4.2 N 28 48 15 26 1015.6 1015.7 0.0
20/06:00pm 14.8 8.4 5.3 53 4.5 N 28 35 15 19 1015.6 1015.7 0.0
20/05:30pm 15.3 8.2 5.5 52 4.7 N 32 39 17 21 1015.3 1015.4 0.0
20/05:00pm 16.4 9.2 5.1 47 5.4 N 32 41 17 22 1015.3 1015.4 0.0
20/04:30pm 17.7 10.6 5.6 45 5.9 N 32 39 17 21 1015.2 1015.3 0.0
20/04:00pm 17.7 10.3 5.1 43 6.1 N 33 54 18 29 1015.3 1015.4 0.0
20/03:51pm 18.5 11.4 5.4 42 6.4 N 32 54 17 29 1015.5 1015.6 0.0
20/03:30pm 18.3 11.8 4.8 41 6.5 N 28 35 15 19 1015.6 1015.7 0.0
20/03:00pm 18.5 11.8 5.4 42 6.4 N 30 37 16 20 1015.9 1016.0 0.0
20/02:30pm 18.0 11.9 4.7 41 6.4 N 26 35 14 19 1016.4 1016.5 0.0
20/02:00pm 18.6 13.3 5.0 40 6.6 N 22 32 12 17 1016.8 1016.9 0.0
20/01:30pm 18.0 12.3 4.9 42 6.3 N 24 35 13 19 1017.1 1017.2 0.0
20/01:00pm 17.2 12.2 4.6 43 6.0 N 20 32 11 17 1017.9 1018.0 0.0
20/12:30pm 16.9 11.9 4.4 43 5.9 N 20 30 11 16 1018.8 1018.8 0.0
20/12:00pm 16.4 10.5 4.0 43 5.8 N 24 41 13 22 1019.3 1019.3 0.0
20/11:30am 15.9 9.2 3.5 43 5.7 NNW 28 35 15 19 1019.5 1019.5 0.0
20/11:00am 15.5 8.1 4.1 46 5.3 N 32 39 17 21 1019.6 1019.6 0.0
20/10:30am 14.1 7.2 4.6 52 4.4 N 30 37 16 20 1020.0 1020.0 0.0
20/10:00am 13.2 6.3 4.5 55 4.0 N 30 39 16 21 1020.7 1020.7 0.0
20/09:30am 12.8 5.7 3.7 54 4.1 N 30 39 16 21 1020.8 1020.8 0.0
20/09:00am 12.2 5.7 4.8 60 3.4 N 28 33 15 18 1021.1 1021.2 0.0
20/08:30am 11.0 4.4 4.1 62 3.1 N 28 35 15 19 1021.0 1021.1 0.0
20/08:00am 9.4 4.3 3.9 68 2.4 N 20 33 11 18 1021.1 1021.2 0.0
20/07:30am 7.5 2.3 3.3 75 1.8 N 20 26 11 14 1021.3 1021.4 0.0
20/07:00am 6.5 1.1 2.6 76 1.6 N 20 26 11 14 1021.4 1021.5 0.0
20/06:30am 5.6 0.4 2.7 81 1.2 N 19 22 10 12 1021.5 1021.6 0.0
20/06:00am 5.2 -0.2 2.5 83 1.1 N 20 26 11 14 1021.1 1021.2 0.0
20/05:30am 5.1 -0.7 2.4 83 1.1 N 22 26 12 14 1021.0 1021.1 0.0
20/05:00am 5.2 -0.1 2.8 84 1.0 N 20 26 11 14 1020.9 1021.0 0.0
20/04:30am 4.7 -0.5 2.7 87 0.8 N 19 20 10 11 1020.8 1020.8 0.0
20/04:00am 4.9 -0.2 3.0 87 0.8 N 19 20 10 11 1020.7 1020.7 0.0
20/03:30am 5.5 0.8 3.3 86 0.9 N 17 19 9 10 1020.7 1020.7 0.0
20/03:00am 5.1 0.4 3.2 87 0.8 N 17 19 9 10 1021.0 1021.1 0.0
20/02:30am 5.2 1.3 3.3 87 0.8 N 13 15 7 8 1021.3 1021.4 0.0
20/02:00am 5.2 0.5 3.3 87 0.8 N 17 19 9 10 1021.3 1021.4 0.0
20/01:30am 5.3 1.0 3.4 87 0.8 N 15 17 8 9 1021.7 1021.8 0.0
20/01:00am 5.7 2.2 3.6 86 0.9 N 11 15 6 8 1021.8 1021.9 0.0
20/12:30am 6.1 3.0 3.5 83 1.1 NNW 9 11 5 6 1022.0 1022.1 0.0
20/12:00am 7.3 3.9 3.8 78 1.5 WNW 11 13 6 7 1022.2 1022.3 0.0
 
Date/Time
EST
Temp
°C
App
Temp
°C
Dew
Point
°C
Rel
Hum
%
Delta-T
°C
Wind Press
QNH
hPa
Press
MSL
hPa
Rain since
9am
mm
Dir  Spd
km/h
Gust
km/h
Spd
kts
Gust
kts
19/11:30pm 7.5 4.2 4.3 80 1.4 WNW 11 13 6 7 1022.4 1022.5 0.0
19/11:00pm 7.6 4.1 3.6 76 1.7 WNW 11 15 6 8 1022.5 1022.6 0.0
19/10:30pm 6.9 3.7 3.1 77 1.6 NW 9 11 5 6 1022.7 1022.8 0.0
19/10:00pm 7.7 4.9 3.2 73 1.9 NW 7 9 4 5 1022.8 1022.9 0.0
19/09:30pm 9.0 6.0 4.0 71 2.2 W 9 11 5 6 1022.9 1023.0 0.0
19/09:00pm 8.5 5.5 4.2 74 1.9 W 9 9 5 5 1022.8 1022.9 0.0
19/08:30pm 9.5 7.8 4.1 69 2.4 SW 2 7 1 4 1022.6 1022.7 0.0
19/08:00pm 9.4 7.0 4.4 71 2.2 SSW 6 7 3 4 1022.5 1022.6 0.0
19/07:30pm 9.4 7.0 4.2 70 2.3 S 6 7 3 4 1022.4 1022.5 0.0
19/07:00pm 8.9 6.2 3.9 71 2.2 S 7 7 4 4 1022.0 1022.1 0.0
19/06:30pm 10.0 5.0 1.6 56 3.5 SSW 17 20 9 11 1021.7 1021.8 0.0
19/06:00pm 11.0 5.3 0.6 48 4.3 SW 20 28 11 15 1021.3 1021.4 0.0
19/05:30pm 12.7 6.9 2.1 48 4.6 SW 22 30 12 16 1021.0 1021.1 0.0
19/05:00pm 12.1 5.9 2.2 50 4.3 SW 24 37 13 20 1020.8 1020.8 0.0
19/04:30pm 12.8 6.2 1.9 47 4.7 SW 26 33 14 18 1020.7 1020.7 0.0
19/04:00pm 12.9 7.1 2.1 48 4.7 SW 22 30 12 16 1020.4 1020.4 0.0
19/03:30pm 12.8 6.2 2.3 49 4.6 SW 26 33 14 18 1020.5 1020.5 0.0
19/03:00pm 13.8 6.4 1.6 43 5.3 SW 30 43 16 23 1020.4 1020.4 0.0
19/02:30pm 12.1 6.0 4.9 61 3.3 SSW 26 37 14 20 1020.6 1020.6 0.0
19/02:00pm 14.1 6.8 2.3 45 5.2 WSW 30 37 16 20 1020.4 1020.4 0.0
19/01:30pm 12.4 5.3 3.4 54 4.0 WSW 30 46 16 25 1020.3 1020.3 0.0
19/01:00pm 13.0 5.4 0.7 43 5.2 WSW 30 37 16 20 1020.2 1020.2 0.0
19/12:30pm 13.6 5.5 1.3 43 5.3 WSW 33 43 18 23 1020.2 1020.2 0.0
19/12:08pm 12.6 5.6 2.0 48 4.6 W 28 50 15 27 1020.2 1020.2 0.0
19/12:00pm 12.9 5.6 2.4 49 4.6 W 30 39 16 21 1020.2 1020.2 0.0
19/11:30am 12.0 3.9 0.8 46 4.7 WSW 33 43 18 23 1020.2 1020.2 0.0
19/11:00am 10.5 3.5 4.2 65 2.8 WSW 30 48 16 26 1020.2 1020.2 0.0
19/10:30am 12.6 5.4 2.9 51 4.3 SW 30 43 16 23 1019.9 1019.9 0.0
19/10:00am 11.7 3.8 2.2 52 4.1 SW 33 46 18 25 1019.8 1019.8 0.0
19/09:30am 11.8 4.6 2.9 54 3.9 SW 30 44 16 24 1019.5 1019.5 0.0
19/09:00am 10.8 3.7 3.3 60 3.3 SW 30 41 16 22 1019.4 1019.4 0.4
19/08:30am 10.2 3.5 3.6 63 2.9 WSW 28 35 15 19 1019.0 1019.0 0.4
19/08:00am 9.4 3.1 3.9 68 2.4 WSW 26 35 14 19 1018.6 1018.6 0.4
19/07:30am 8.3 3.5 4.4 76 1.7 W 19 26 10 14 1018.2 1018.2 0.4
19/07:00am 7.5 3.3 4.0 78 1.5 W 15 19 8 10 1017.6 1017.7 0.4
19/06:30am 7.2 2.2 3.7 78 1.5 W 19 24 10 13 1017.1 1017.2 0.4
19/06:00am 7.4 2.8 3.7 77 1.6 W 17 20 9 11 1016.6 1016.7 0.4
19/05:30am 8.4 2.9 3.8 73 2.0 WSW 22 32 12 17 1016.1 1016.2 0.4
19/05:00am 8.7 1.1 3.1 68 2.4 WSW 32 46 17 25 1015.8 1015.9 0.4
19/04:30am 8.8 3.3 3.8 71 2.2 W 22 32 12 17 1015.3 1015.4 0.4
19/04:00am 9.0 3.2 4.3 72 2.1 WSW 24 32 13 17 1014.9 1015.0 0.4
19/03:30am 9.2 3.7 4.2 71 2.2 W 22 37 12 20 1014.7 1014.8 0.4
19/03:00am 8.7 3.2 4.2 73 2.0 W 22 30 12 16 1014.4 1014.5 0.4
19/02:30am 8.5 3.0 3.9 73 2.0 W 22 28 12 15 1014.2 1014.3 0.4
19/02:00am 8.4 3.4 4.6 77 1.7 WNW 20 32 11 17 1013.7 1013.8 0.4
19/01:30am 9.0 2.9 4.8 75 1.9 W 26 32 14 17 1013.8 1013.9 0.4
19/01:00am 9.5 4.6 4.1 69 2.4 W 19 28 10 15 1013.9 1014.0 0.4
19/12:30am 9.7 4.2 4.1 68 2.5 W 22 32 12 17 1013.2 1013.2 0.4
19/12:00am 10.1 4.2 4.0 66 2.7 WNW 24 35 13 19 1013.0 1013.0 0.4
 
Date/Time
EST
Temp
°C
App
Temp
°C
Dew
Point
°C
Rel
Hum
%
Delta-T
°C
Wind Press
QNH
hPa
Press
MSL
hPa
Rain since
9am
mm
Dir  Spd
km/h
Gust
km/h
Spd
kts
Gust
kts
18/11:30pm 10.2 4.4 4.2 66 2.7 WNW 24 33 13 18 1012.8 1012.8 0.4
18/11:00pm 10.5 5.7 4.5 66 2.7 NW 19 30 10 16 1012.9 1012.9 0.4
18/10:30pm 10.8 6.8 5.1 68 2.6 NW 15 20 8 11 1012.9 1012.9 0.4
18/10:00pm 11.0 6.0 4.6 64 2.9 NW 20 28 11 15 1012.8 1012.8 0.4
18/09:30pm 11.6 6.4 5.4 65 2.9 NW 22 32 12 17 1013.0 1013.0 0.4
18/09:00pm 12.5 7.4 6.0 64 3.1 NW 22 33 12 18 1012.5 1012.5 0.4
18/08:30pm 12.5 7.2 8.3 75 2.1 NW 26 37 14 20 1012.4 1012.4 0.4
18/08:00pm 12.3 5.6 8.1 75 2.1 NW 33 52 18 28 1011.9 1011.9 0.2
18/07:30pm 12.6 3.9 7.5 71 2.5 WNW 43 65 23 35 1012.1 1012.1 0.0
18/07:06pm 13.5 5.2 7.9 69 2.8 WNW 41 61 22 33 1012.2 1012.2 0.0
18/07:00pm 13.9 6.0 7.9 67 3.0 WNW 39 54 21 29 1012.2 1012.2 0.0
18/06:30pm 16.0 5.7 4.6 46 5.4 WNW 48 72 26 39 1010.8 1010.8 0.0
18/06:24pm 16.3 5.8 3.9 43 5.8 WNW 48 72 26 39 1010.5 1010.5 0.0
18/06:00pm 18.1 9.5 0.5 30 7.8 WNW 35 54 19 29 1009.7 1009.7 0.0
18/05:44pm 19.3 10.5 -1.4 24 8.9 WNW 35 54 19 29 1009.4 1009.4 0.0
18/05:30pm 19.7 12.6 -0.9 25 9.0 WNW 26 37 14 20 1008.8 1008.9 0.0
18/05:04pm 20.8 13.2 -1.9 21 9.8 NW 28 52 15 28 1008.5 1008.6 0.0
18/05:00pm 21.0 14.8 -0.6 23 9.6 NW 22 33 12 18 1008.5 1008.6 0.0
18/04:30pm 20.9 13.5 -0.8 23 9.6 NNW 28 39 15 21 1008.1 1008.2 0.0
18/04:00pm 21.2 13.1 -0.6 23 9.7 N 32 54 17 29 1008.2 1008.3 0.0
18/03:58pm 21.3 13.2 0.0 24 9.6 N 32 54 17 29 1008.2 1008.3 0.0
18/03:30pm 20.4 12.3 1.2 28 8.8 N 33 43 18 23 1008.4 1008.5 0.0
18/03:14pm 20.7 10.9 -0.1 25 9.3 N 41 59 22 32 1008.4 1008.5 0.0
18/03:00pm 21.0 11.3 0.5 25 9.3 N 41 54 22 29 1008.7 1008.8 0.0
18/02:30pm 20.2 11.0 1.1 28 8.7 N 39 57 21 31 1009.0 1009.1 0.0
18/02:12pm 19.4 9.3 0.4 28 8.5 N 43 61 23 33 1009.3 1009.3 0.0
18/02:00pm 19.8 9.2 1.1 28 8.5 N 46 57 25 31 1009.5 1009.5 0.0
18/01:30pm 18.8 8.8 1.0 30 8.0 N 43 57 23 31 1010.1 1010.1 0.0
18/01:05pm 18.8 8.5 0.3 29 8.2 NNE 44 65 24 35 1010.8 1010.8 0.0
18/01:00pm 19.3 8.4 1.6 30 8.1 NNE 48 59 26 32 1010.8 1010.8 0.0
18/12:30pm 18.1 7.3 -0.3 29 8.0 NNE 46 65 25 35 1011.7 1011.7 0.0
18/12:00pm 17.9 7.6 -1.1 27 8.1 N 43 65 23 35 1012.3 1012.3 0.0
18/11:33am 17.1 6.3 -0.3 30 7.5 N 46 65 25 35 1012.9 1012.9 0.0
18/11:30am 17.1 5.6 -0.3 30 7.5 N 50 65 27 35 1012.9 1012.9 0.0
18/11:07am 16.5 3.8 -0.7 31 7.3 N 56 74 30 40 1012.9 1012.9 0.0
18/11:00am 16.4 3.5 -0.5 31 7.2 N 57 74 31 40 1013.1 1013.1 0.0
18/10:30am 15.4 2.6 -1.6 31 7.0 N 56 72 30 39 1013.5 1013.5 0.0
18/10:10am 15.0 1.1 -2.7 29 7.1 N 61 80 33 43 1013.5 1013.5 0.0
18/10:00am 14.3 0.5 -1.7 33 6.5 N 61 78 33 42 1013.3 1013.3 0.0
18/09:33am 13.9 1.0 -2.0 33 6.4 N 56 74 30 40 1013.4 1013.4 0.0

Other Formats:

Comma delimited format used in spreadsheet applications
http://www.bom.gov.au/fwo/IDV60801/IDV60801.94866.axf

JavaScript Object Notation format (JSON) in row-major order
http://www.bom.gov.au/fwo/IDV60801/IDV60801.94866.json